KFLL/FLL METAR and TAF weather

Enter ICAO airport designator
Station Type Date Time Source
KFLL METAR 2019/12/12 16:53 UTC NOAA

KFLL 121653Z 16005KT 10SM FEW013 BKN030 OVC060 23/20 A3018 RMK AO2 RAE1554 SLP219 P0000 T02330200 $


Station Type Date Time Source
KFLL Decoded METAR 2019/12/12 16:53 UTC NOAA

FORT LAUDERDALE/HOLLYWOOD, FL, United States (KFLL) 26-04N 080-09W 30M
Dec 12, 2019 - 11:53 AM EST / 2019.12.12 1653 UTC
Wind: from the SSE (160 degrees) at 6 MPH (5 KT):0
Visibility: 10 mile(s):0
Sky conditions: overcast
Precipitation last hour: A trace
Temperature: 73.9 F (23.3 C)
Dew Point: 68.0 F (20.0 C)
Relative Humidity: 81%
Pressure (altimeter): 30.18 in. Hg (1022 hPa)
ob: KFLL 121653Z 16005KT 10SM FEW013 BKN030 OVC060 23/20 A3018 RMK AO2 RAE1554 SLP219 P0000 T02330200
cycle: 17

Station Type Date Time Source
KFLL TAF 2019/12/12 15:20 UTC NOAA

TAF
AMD KFLL 121511Z 1215/1318 08010KT P6SM VCSH SCT030 BKN040
TEMPO 1215/1218 4SM SHRA BKN025
FM121800 10011KT P6SM VCSH SCT025 BKN035 BKN100
FM130000 10008KT P6SM SCT030 BKN060 BKN100
FM131500 13009KT P6SM SCT025 BKN050 BKN100

Example: see airport list